sensor_id;sensor_type;location;lat;lon;timestamp;P1;durP1;ratioP1;P2;durP2;ratioP2
26906;SDS011;14472;56.880;16.658;2023-05-16T00:01:09;13.93;;;10.53;;
26906;SDS011;14472;56.880;16.658;2023-05-16T00:03:36;14.27;;;10.60;;
26906;SDS011;14472;56.880;16.658;2023-05-16T00:06:02;11.80;;;10.00;;
26906;SDS011;14472;56.880;16.658;2023-05-16T00:08:29;14.50;;;10.43;;
26906;SDS011;14472;56.880;16.658;2023-05-16T00:10:55;11.17;;;9.90;;
26906;SDS011;14472;56.880;16.658;2023-05-16T00:13:21;11.50;;;10.07;;
26906;SDS011;14472;56.880;16.658;2023-05-16T00:15:49;16.10;;;11.40;;
26906;SDS011;14472;56.880;16.658;2023-05-16T00:18:16;14.67;;;10.53;;
26906;SDS011;14472;56.880;16.658;2023-05-16T00:20:43;13.53;;;10.60;;
26906;SDS011;14472;56.880;16.658;2023-05-16T00:23:09;12.63;;;10.23;;
26906;SDS011;14472;56.880;16.658;2023-05-16T00:25:35;14.23;;;10.87;;
26906;SDS011;14472;56.880;16.658;2023-05-16T00:28:01;11.57;;;10.20;;
26906;SDS011;14472;56.880;16.658;2023-05-16T00:30:27;14.57;;;10.70;;
26906;SDS011;14472;56.880;16.658;2023-05-16T00:32:53;14.63;;;11.33;;
26906;SDS011;14472;56.880;16.658;2023-05-16T00:35:20;12.17;;;10.83;;
26906;SDS011;14472;56.880;16.658;2023-05-16T00:37:45;13.60;;;9.90;;
26906;SDS011;14472;56.880;16.658;2023-05-16T00:40:11;11.73;;;10.50;;
26906;SDS011;14472;56.880;16.658;2023-05-16T00:42:37;14.07;;;10.93;;
26906;SDS011;14472;56.880;16.658;2023-05-16T00:45:04;14.20;;;10.90;;
26906;SDS011;14472;56.880;16.658;2023-05-16T00:47:30;13.00;;;11.20;;
26906;SDS011;14472;56.880;16.658;2023-05-16T00:49:56;12.70;;;11.20;;
26906;SDS011;14472;56.880;16.658;2023-05-16T00:52:22;15.00;;;11.70;;
26906;SDS011;14472;56.880;16.658;2023-05-16T00:54:49;15.40;;;12.37;;
26906;SDS011;14472;56.880;16.658;2023-05-16T00:57:15;13.80;;;12.47;;
26906;SDS011;14472;56.880;16.658;2023-05-16T00:59:41;15.30;;;12.40;;
26906;SDS011;14472;56.880;16.658;2023-05-16T01:02:10;14.20;;;12.23;;
26906;SDS011;14472;56.880;16.658;2023-05-16T01:04:37;13.60;;;12.23;;
26906;SDS011;14472;56.880;16.658;2023-05-16T01:07:03;14.27;;;12.60;;
26906;SDS011;14472;56.880;16.658;2023-05-16T01:09:29;15.73;;;12.17;;
26906;SDS011;14472;56.880;16.658;2023-05-16T01:12:08;14.83;;;12.60;;
26906;SDS011;14472;56.880;16.658;2023-05-16T01:14:45;16.00;;;13.57;;
26906;SDS011;14472;56.880;16.658;2023-05-16T01:17:21;16.70;;;13.97;;
26906;SDS011;14472;56.880;16.658;2023-05-16T01:19:55;17.13;;;14.30;;
26906;SDS011;14472;56.880;16.658;2023-05-16T01:22:45;15.80;;;14.20;;
26906;SDS011;14472;56.880;16.658;2023-05-16T01:28:12;20.27;;;16.60;;
26906;SDS011;14472;56.880;16.658;2023-05-16T01:30:40;18.87;;;16.03;;
26906;SDS011;14472;56.880;16.658;2023-05-16T01:33:06;22.03;;;16.90;;
26906;SDS011;14472;56.880;16.658;2023-05-16T01:35:32;20.73;;;18.63;;
26906;SDS011;14472;56.880;16.658;2023-05-16T01:38:25;21.10;;;18.70;;
26906;SDS011;14472;56.880;16.658;2023-05-16T01:40:57;22.43;;;17.47;;
26906;SDS011;14472;56.880;16.658;2023-05-16T01:43:32;19.47;;;17.10;;
26906;SDS011;14472;56.880;16.658;2023-05-16T01:46:11;18.83;;;16.70;;
26906;SDS011;14472;56.880;16.658;2023-05-16T01:48:43;17.60;;;15.80;;
26906;SDS011;14472;56.880;16.658;2023-05-16T01:51:21;19.40;;;16.33;;
26906;SDS011;14472;56.880;16.658;2023-05-16T01:53:52;20.00;;;17.10;;
26906;SDS011;14472;56.880;16.658;2023-05-16T01:56:23;16.50;;;14.73;;
26906;SDS011;14472;56.880;16.658;2023-05-16T01:58:50;13.07;;;11.77;;
26906;SDS011;14472;56.880;16.658;2023-05-16T02:01:18;15.13;;;11.00;;
26906;SDS011;14472;56.880;16.658;2023-05-16T02:03:44;11.93;;;10.10;;
26906;SDS011;14472;56.880;16.658;2023-05-16T02:06:09;14.57;;;9.63;;
26906;SDS011;14472;56.880;16.658;2023-05-16T02:08:35;12.00;;;10.40;;
26906;SDS011;14472;56.880;16.658;2023-05-16T02:11:01;11.17;;;9.47;;
26906;SDS011;14472;56.880;16.658;2023-05-16T02:13:27;12.67;;;8.30;;
26906;SDS011;14472;56.880;16.658;2023-05-16T02:15:52;14.13;;;9.17;;
26906;SDS011;14472;56.880;16.658;2023-05-16T02:18:18;12.67;;;8.73;;
26906;SDS011;14472;56.880;16.658;2023-05-16T02:20:44;14.23;;;9.77;;
26906;SDS011;14472;56.880;16.658;2023-05-16T02:23:10;12.20;;;9.53;;
26906;SDS011;14472;56.880;16.658;2023-05-16T02:25:36;13.33;;;9.20;;
26906;SDS011;14472;56.880;16.658;2023-05-16T02:28:01;11.37;;;9.40;;
26906;SDS011;14472;56.880;16.658;2023-05-16T02:30:27;15.63;;;10.50;;
26906;SDS011;14472;56.880;16.658;2023-05-16T02:32:53;15.30;;;10.30;;
26906;SDS011;14472;56.880;16.658;2023-05-16T02:35:19;15.43;;;11.13;;
26906;SDS011;14472;56.880;16.658;2023-05-16T02:37:45;16.40;;;11.10;;
26906;SDS011;14472;56.880;16.658;2023-05-16T02:40:11;16.63;;;11.50;;
26906;SDS011;14472;56.880;16.658;2023-05-16T02:42:37;14.77;;;10.87;;
26906;SDS011;14472;56.880;16.658;2023-05-16T02:45:03;14.30;;;11.57;;
26906;SDS011;14472;56.880;16.658;2023-05-16T02:47:29;15.13;;;11.77;;
26906;SDS011;14472;56.880;16.658;2023-05-16T02:49:55;14.00;;;11.37;;
26906;SDS011;14472;56.880;16.658;2023-05-16T02:52:20;14.90;;;11.83;;
26906;SDS011;14472;56.880;16.658;2023-05-16T02:54:46;14.17;;;11.60;;
26906;SDS011;14472;56.880;16.658;2023-05-16T02:57:12;15.13;;;11.60;;
26906;SDS011;14472;56.880;16.658;2023-05-16T02:59:37;17.77;;;11.83;;
26906;SDS011;14472;56.880;16.658;2023-05-16T03:02:03;17.77;;;11.10;;
26906;SDS011;14472;56.880;16.658;2023-05-16T03:04:29;15.13;;;11.77;;
26906;SDS011;14472;56.880;16.658;2023-05-16T03:06:55;13.57;;;12.17;;
26906;SDS011;14472;56.880;16.658;2023-05-16T03:09:20;14.53;;;12.23;;
26906;SDS011;14472;56.880;16.658;2023-05-16T03:11:46;19.00;;;12.33;;
26906;SDS011;14472;56.880;16.658;2023-05-16T03:14:12;19.87;;;12.37;;
26906;SDS011;14472;56.880;16.658;2023-05-16T03:16:38;16.13;;;12.23;;
26906;SDS011;14472;56.880;16.658;2023-05-16T03:19:05;17.83;;;12.40;;
26906;SDS011;14472;56.880;16.658;2023-05-16T03:21:31;15.33;;;12.53;;
26906;SDS011;14472;56.880;16.658;2023-05-16T03:23:57;16.10;;;12.90;;
26906;SDS011;14472;56.880;16.658;2023-05-16T03:26:26;16.60;;;12.43;;
26906;SDS011;14472;56.880;16.658;2023-05-16T03:28:51;16.67;;;12.67;;
26906;SDS011;14472;56.880;16.658;2023-05-16T03:31:17;17.77;;;12.97;;
26906;SDS011;14472;56.880;16.658;2023-05-16T03:33:43;18.33;;;12.63;;
26906;SDS011;14472;56.880;16.658;2023-05-16T03:36:09;13.87;;;11.93;;
26906;SDS011;14472;56.880;16.658;2023-05-16T03:38:35;15.43;;;12.67;;
26906;SDS011;14472;56.880;16.658;2023-05-16T03:41:01;17.47;;;12.20;;
26906;SDS011;14472;56.880;16.658;2023-05-16T03:43:27;14.40;;;12.37;;
26906;SDS011;14472;56.880;16.658;2023-05-16T03:45:52;15.07;;;12.07;;
26906;SDS011;14472;56.880;16.658;2023-05-16T03:48:18;15.33;;;12.87;;
26906;SDS011;14472;56.880;16.658;2023-05-16T03:50:44;17.90;;;12.87;;
26906;SDS011;14472;56.880;16.658;2023-05-16T03:53:10;16.33;;;12.47;;
26906;SDS011;14472;56.880;16.658;2023-05-16T03:55:36;14.33;;;12.17;;
26906;SDS011;14472;56.880;16.658;2023-05-16T03:58:02;14.97;;;11.87;;
26906;SDS011;14472;56.880;16.658;2023-05-16T04:00:27;14.90;;;11.97;;
26906;SDS011;14472;56.880;16.658;2023-05-16T04:02:53;14.50;;;11.93;;
26906;SDS011;14472;56.880;16.658;2023-05-16T04:05:19;14.33;;;11.20;;
26906;SDS011;14472;56.880;16.658;2023-05-16T04:07:45;14.20;;;12.10;;
26906;SDS011;14472;56.880;16.658;2023-05-16T04:10:11;14.77;;;11.50;;
26906;SDS011;14472;56.880;16.658;2023-05-16T04:12:37;12.93;;;11.37;;
26906;SDS011;14472;56.880;16.658;2023-05-16T04:15:03;14.83;;;11.27;;
26906;SDS011;14472;56.880;16.658;2023-05-16T04:17:30;15.37;;;10.73;;
26906;SDS011;14472;56.880;16.658;2023-05-16T04:19:56;15.07;;;10.67;;
26906;SDS011;14472;56.880;16.658;2023-05-16T04:22:22;13.73;;;11.27;;
26906;SDS011;14472;56.880;16.658;2023-05-16T04:24:48;13.70;;;10.93;;
26906;SDS011;14472;56.880;16.658;2023-05-16T04:27:14;13.60;;;10.67;;
26906;SDS011;14472;56.880;16.658;2023-05-16T04:29:40;13.80;;;10.53;;
26906;SDS011;14472;56.880;16.658;2023-05-16T04:32:06;13.10;;;10.10;;
26906;SDS011;14472;56.880;16.658;2023-05-16T04:34:32;13.13;;;10.33;;
26906;SDS011;14472;56.880;16.658;2023-05-16T04:37:01;16.47;;;10.10;;
26906;SDS011;14472;56.880;16.658;2023-05-16T04:39:31;10.70;;;9.13;;
26906;SDS011;14472;56.880;16.658;2023-05-16T04:42:00;13.50;;;9.97;;
26906;SDS011;14472;56.880;16.658;2023-05-16T04:44:27;15.27;;;10.07;;
26906;SDS011;14472;56.880;16.658;2023-05-16T04:46:53;12.53;;;9.97;;
26906;SDS011;14472;56.880;16.658;2023-05-16T04:49:19;14.87;;;10.20;;
26906;SDS011;14472;56.880;16.658;2023-05-16T04:51:46;14.67;;;9.83;;
26906;SDS011;14472;56.880;16.658;2023-05-16T04:54:12;12.40;;;10.00;;
26906;SDS011;14472;56.880;16.658;2023-05-16T04:56:38;13.23;;;10.47;;
26906;SDS011;14472;56.880;16.658;2023-05-16T04:59:04;12.37;;;10.47;;
26906;SDS011;14472;56.880;16.658;2023-05-16T05:01:30;12.27;;;9.63;;
26906;SDS011;14472;56.880;16.658;2023-05-16T05:03:56;11.30;;;9.57;;
26906;SDS011;14472;56.880;16.658;2023-05-16T05:06:21;13.03;;;9.50;;
26906;SDS011;14472;56.880;16.658;2023-05-16T05:08:47;11.60;;;9.10;;
26906;SDS011;14472;56.880;16.658;2023-05-16T05:11:13;10.80;;;9.67;;
26906;SDS011;14472;56.880;16.658;2023-05-16T05:13:39;11.27;;;10.03;;
26906;SDS011;14472;56.880;16.658;2023-05-16T05:16:05;12.03;;;9.60;;
26906;SDS011;14472;56.880;16.658;2023-05-16T05:18:31;12.37;;;9.30;;
26906;SDS011;14472;56.880;16.658;2023-05-16T05:20:57;11.67;;;9.57;;
26906;SDS011;14472;56.880;16.658;2023-05-16T05:23:23;12.17;;;9.73;;
26906;SDS011;14472;56.880;16.658;2023-05-16T05:25:49;13.00;;;9.23;;
26906;SDS011;14472;56.880;16.658;2023-05-16T05:28:15;11.93;;;9.40;;
26906;SDS011;14472;56.880;16.658;2023-05-16T05:30:41;11.87;;;9.87;;
26906;SDS011;14472;56.880;16.658;2023-05-16T05:33:09;14.90;;;9.80;;
26906;SDS011;14472;56.880;16.658;2023-05-16T05:35:35;13.10;;;9.60;;
26906;SDS011;14472;56.880;16.658;2023-05-16T05:38:01;10.07;;;8.83;;
26906;SDS011;14472;56.880;16.658;2023-05-16T05:40:28;11.17;;;9.40;;
26906;SDS011;14472;56.880;16.658;2023-05-16T05:42:54;11.30;;;9.50;;
26906;SDS011;14472;56.880;16.658;2023-05-16T05:45:19;12.00;;;9.50;;
26906;SDS011;14472;56.880;16.658;2023-05-16T05:47:45;10.23;;;9.23;;
26906;SDS011;14472;56.880;16.658;2023-05-16T05:50:11;10.67;;;9.67;;
26906;SDS011;14472;56.880;16.658;2023-05-16T05:52:42;11.20;;;10.00;;
26906;SDS011;14472;56.880;16.658;2023-05-16T05:55:08;13.67;;;10.97;;
26906;SDS011;14472;56.880;16.658;2023-05-16T05:57:34;12.00;;;10.77;;
26906;SDS011;14472;56.880;16.658;2023-05-16T06:00:00;12.00;;;9.70;;
26906;SDS011;14472;56.880;16.658;2023-05-16T06:02:26;13.00;;;10.80;;
26906;SDS011;14472;56.880;16.658;2023-05-16T06:04:52;11.33;;;10.10;;
26906;SDS011;14472;56.880;16.658;2023-05-16T06:07:17;11.80;;;10.40;;
26906;SDS011;14472;56.880;16.658;2023-05-16T06:09:43;13.40;;;11.33;;
26906;SDS011;14472;56.880;16.658;2023-05-16T06:12:09;14.50;;;10.90;;
26906;SDS011;14472;56.880;16.658;2023-05-16T06:14:35;13.37;;;10.47;;
26906;SDS011;14472;56.880;16.658;2023-05-16T06:17:00;12.20;;;10.67;;
26906;SDS011;14472;56.880;16.658;2023-05-16T06:19:26;12.20;;;10.67;;
26906;SDS011;14472;56.880;16.658;2023-05-16T06:21:52;15.30;;;11.53;;
26906;SDS011;14472;56.880;16.658;2023-05-16T06:24:18;11.77;;;10.57;;
26906;SDS011;14472;56.880;16.658;2023-05-16T06:26:43;12.40;;;11.20;;
26906;SDS011;14472;56.880;16.658;2023-05-16T06:29:14;14.00;;;11.13;;
26906;SDS011;14472;56.880;16.658;2023-05-16T06:31:40;12.07;;;10.80;;
26906;SDS011;14472;56.880;16.658;2023-05-16T06:34:05;12.37;;;10.73;;
26906;SDS011;14472;56.880;16.658;2023-05-16T06:36:31;12.70;;;10.50;;
26906;SDS011;14472;56.880;16.658;2023-05-16T06:38:57;11.20;;;10.03;;
26906;SDS011;14472;56.880;16.658;2023-05-16T06:41:23;11.27;;;9.90;;
26906;SDS011;14472;56.880;16.658;2023-05-16T06:43:48;10.93;;;9.43;;
26906;SDS011;14472;56.880;16.658;2023-05-16T06:46:14;12.90;;;9.73;;
26906;SDS011;14472;56.880;16.658;2023-05-16T06:48:40;12.70;;;9.90;;
26906;SDS011;14472;56.880;16.658;2023-05-16T06:51:06;10.47;;;9.47;;
26906;SDS011;14472;56.880;16.658;2023-05-16T06:53:31;11.67;;;9.93;;
26906;SDS011;14472;56.880;16.658;2023-05-16T06:55:57;11.97;;;9.87;;
26906;SDS011;14472;56.880;16.658;2023-05-16T06:58:23;12.80;;;9.93;;
26906;SDS011;14472;56.880;16.658;2023-05-16T07:00:49;10.73;;;9.70;;
26906;SDS011;14472;56.880;16.658;2023-05-16T07:03:15;13.63;;;10.30;;
26906;SDS011;14472;56.880;16.658;2023-05-16T07:05:40;11.30;;;10.20;;
26906;SDS011;14472;56.880;16.658;2023-05-16T07:08:09;12.60;;;10.83;;
26906;SDS011;14472;56.880;16.658;2023-05-16T07:10:36;12.33;;;10.83;;
26906;SDS011;14472;56.880;16.658;2023-05-16T07:13:02;14.50;;;11.13;;
26906;SDS011;14472;56.880;16.658;2023-05-16T07:15:29;11.97;;;10.77;;
26906;SDS011;14472;56.880;16.658;2023-05-16T07:17:55;11.40;;;10.27;;
26906;SDS011;14472;56.880;16.658;2023-05-16T07:20:21;13.40;;;11.40;;
26906;SDS011;14472;56.880;16.658;2023-05-16T07:22:47;12.87;;;11.23;;
26906;SDS011;14472;56.880;16.658;2023-05-16T07:25:13;12.90;;;11.33;;
26906;SDS011;14472;56.880;16.658;2023-05-16T07:27:40;13.07;;;11.67;;
26906;SDS011;14472;56.880;16.658;2023-05-16T07:30:07;13.70;;;12.07;;
26906;SDS011;14472;56.880;16.658;2023-05-16T07:32:34;13.47;;;11.97;;
26906;SDS011;14472;56.880;16.658;2023-05-16T07:34:59;13.57;;;12.17;;
26906;SDS011;14472;56.880;16.658;2023-05-16T07:37:25;12.30;;;11.10;;
26906;SDS011;14472;56.880;16.658;2023-05-16T07:39:51;13.70;;;12.10;;
26906;SDS011;14472;56.880;16.658;2023-05-16T07:42:17;12.97;;;10.93;;
26906;SDS011;14472;56.880;16.658;2023-05-16T07:44:42;15.60;;;12.20;;
26906;SDS011;14472;56.880;16.658;2023-05-16T07:47:09;12.50;;;11.07;;
26906;SDS011;14472;56.880;16.658;2023-05-16T07:49:35;12.63;;;11.43;;
26906;SDS011;14472;56.880;16.658;2023-05-16T07:52:00;13.67;;;11.33;;
26906;SDS011;14472;56.880;16.658;2023-05-16T07:54:26;13.90;;;10.97;;
26906;SDS011;14472;56.880;16.658;2023-05-16T07:56:52;12.33;;;11.03;;
26906;SDS011;14472;56.880;16.658;2023-05-16T07:59:18;15.10;;;12.20;;
26906;SDS011;14472;56.880;16.658;2023-05-16T08:01:43;11.93;;;10.73;;
26906;SDS011;14472;56.880;16.658;2023-05-16T08:04:09;11.37;;;10.20;;
26906;SDS011;14472;56.880;16.658;2023-05-16T08:06:35;11.90;;;10.57;;
26906;SDS011;14472;56.880;16.658;2023-05-16T08:09:01;11.23;;;10.20;;
26906;SDS011;14472;56.880;16.658;2023-05-16T08:11:26;13.57;;;10.73;;
26906;SDS011;14472;56.880;16.658;2023-05-16T08:13:52;11.90;;;10.30;;
26906;SDS011;14472;56.880;16.658;2023-05-16T08:16:18;11.70;;;10.60;;
26906;SDS011;14472;56.880;16.658;2023-05-16T08:18:44;11.80;;;10.60;;
26906;SDS011;14472;56.880;16.658;2023-05-16T08:21:10;11.83;;;10.63;;
26906;SDS011;14472;56.880;16.658;2023-05-16T08:23:35;11.90;;;10.33;;
26906;SDS011;14472;56.880;16.658;2023-05-16T08:26:01;12.00;;;10.37;;
26906;SDS011;14472;56.880;16.658;2023-05-16T08:28:27;13.20;;;10.93;;
26906;SDS011;14472;56.880;16.658;2023-05-16T08:30:54;13.00;;;11.60;;
26906;SDS011;14472;56.880;16.658;2023-05-16T08:33:20;12.60;;;11.37;;
26906;SDS011;14472;56.880;16.658;2023-05-16T08:35:46;13.93;;;11.80;;
26906;SDS011;14472;56.880;16.658;2023-05-16T08:38:13;12.57;;;11.27;;
26906;SDS011;14472;56.880;16.658;2023-05-16T08:40:39;12.73;;;11.10;;
26906;SDS011;14472;56.880;16.658;2023-05-16T08:43:07;11.90;;;10.57;;
26906;SDS011;14472;56.880;16.658;2023-05-16T08:45:32;13.13;;;10.97;;
26906;SDS011;14472;56.880;16.658;2023-05-16T08:47:59;11.33;;;9.50;;
26906;SDS011;14472;56.880;16.658;2023-05-16T08:50:28;11.77;;;10.17;;
26906;SDS011;14472;56.880;16.658;2023-05-16T08:52:56;10.40;;;9.30;;
26906;SDS011;14472;56.880;16.658;2023-05-16T08:55:22;14.27;;;9.97;;
26906;SDS011;14472;56.880;16.658;2023-05-16T08:57:50;10.57;;;9.47;;
26906;SDS011;14472;56.880;16.658;2023-05-16T09:00:18;10.60;;;9.63;;
26906;SDS011;14472;56.880;16.658;2023-05-16T09:02:45;10.07;;;9.17;;
26906;SDS011;14472;56.880;16.658;2023-05-16T09:05:13;10.17;;;9.17;;
26906;SDS011;14472;56.880;16.658;2023-05-16T09:07:40;10.27;;;9.30;;
26906;SDS011;14472;56.880;16.658;2023-05-16T09:10:07;10.20;;;9.10;;
26906;SDS011;14472;56.880;16.658;2023-05-16T09:12:33;9.37;;;8.50;;
26906;SDS011;14472;56.880;16.658;2023-05-16T09:15:02;11.57;;;8.87;;
26906;SDS011;14472;56.880;16.658;2023-05-16T09:17:33;11.10;;;9.03;;
26906;SDS011;14472;56.880;16.658;2023-05-16T09:20:07;12.20;;;9.33;;
26906;SDS011;14472;56.880;16.658;2023-05-16T09:22:49;10.67;;;9.57;;
26906;SDS011;14472;56.880;16.658;2023-05-16T09:25:20;9.70;;;8.73;;
26906;SDS011;14472;56.880;16.658;2023-05-16T09:27:47;10.77;;;9.67;;
26906;SDS011;14472;56.880;16.658;2023-05-16T09:30:17;11.00;;;9.83;;
26906;SDS011;14472;56.880;16.658;2023-05-16T09:33:06;12.17;;;9.57;;
26906;SDS011;14472;56.880;16.658;2023-05-16T09:35:32;11.97;;;9.03;;
26906;SDS011;14472;56.880;16.658;2023-05-16T09:37:58;14.73;;;9.40;;
26906;SDS011;14472;56.880;16.658;2023-05-16T09:40:23;9.83;;;8.80;;
26906;SDS011;14472;56.880;16.658;2023-05-16T09:43:02;9.37;;;8.57;;
26906;SDS011;14472;56.880;16.658;2023-05-16T09:45:30;9.60;;;8.70;;
26906;SDS011;14472;56.880;16.658;2023-05-16T09:48:00;9.90;;;8.90;;
26906;SDS011;14472;56.880;16.658;2023-05-16T09:50:31;9.87;;;8.87;;
26906;SDS011;14472;56.880;16.658;2023-05-16T09:52:58;9.90;;;8.93;;
26906;SDS011;14472;56.880;16.658;2023-05-16T09:55:24;10.00;;;8.27;;
26906;SDS011;14472;56.880;16.658;2023-05-16T09:57:50;11.87;;;8.80;;
26906;SDS011;14472;56.880;16.658;2023-05-16T10:00:15;10.20;;;9.25;;
26906;SDS011;14472;56.880;16.658;2023-05-16T10:02:42;10.10;;;9.20;;
26906;SDS011;14472;56.880;16.658;2023-05-16T10:05:08;16.03;;;9.20;;
26906;SDS011;14472;56.880;16.658;2023-05-16T10:07:34;9.57;;;8.77;;
26906;SDS011;14472;56.880;16.658;2023-05-16T10:10:07;9.07;;;8.20;;
26906;SDS011;14472;56.880;16.658;2023-05-16T10:12:33;9.33;;;8.53;;
26906;SDS011;14472;56.880;16.658;2023-05-16T10:15:01;9.10;;;8.30;;
26906;SDS011;14472;56.880;16.658;2023-05-16T10:17:29;9.83;;;8.50;;
26906;SDS011;14472;56.880;16.658;2023-05-16T10:20:00;9.00;;;8.18;;
26906;SDS011;14472;56.880;16.658;2023-05-16T10:22:31;8.38;;;7.45;;
26906;SDS011;14472;56.880;16.658;2023-05-16T10:27:40;10.43;;;8.23;;
26906;SDS011;14472;56.880;16.658;2023-05-16T10:30:06;8.93;;;8.10;;
26906;SDS011;14472;56.880;16.658;2023-05-16T10:32:35;8.77;;;7.95;;
26906;SDS011;14472;56.880;16.658;2023-05-16T10:35:02;10.38;;;8.35;;
26906;SDS011;14472;56.880;16.658;2023-05-16T10:37:31;9.98;;;8.02;;
26906;SDS011;14472;56.880;16.658;2023-05-16T10:39:58;8.52;;;7.63;;
26906;SDS011;14472;56.880;16.658;2023-05-16T10:42:26;8.93;;;7.95;;
26906;SDS011;14472;56.880;16.658;2023-05-16T10:44:56;10.13;;;8.38;;
26906;SDS011;14472;56.880;16.658;2023-05-16T10:47:39;10.55;;;8.02;;
26906;SDS011;14472;56.880;16.658;2023-05-16T10:50:05;9.23;;;8.20;;
26906;SDS011;14472;56.880;16.658;2023-05-16T10:52:32;10.60;;;8.25;;
26906;SDS011;14472;56.880;16.658;2023-05-16T10:55:01;9.98;;;8.15;;
26906;SDS011;14472;56.880;16.658;2023-05-16T10:57:28;8.73;;;8.02;;
26906;SDS011;14472;56.880;16.658;2023-05-16T10:59:58;12.02;;;7.60;;
26906;SDS011;14472;56.880;16.658;2023-05-16T11:02:32;8.75;;;7.85;;
26906;SDS011;14472;56.880;16.658;2023-05-16T11:05:05;8.35;;;7.55;;
26906;SDS011;14472;56.880;16.658;2023-05-16T11:07:33;11.65;;;8.00;;
26906;SDS011;14472;56.880;16.658;2023-05-16T11:10:09;9.38;;;8.10;;
26906;SDS011;14472;56.880;16.658;2023-05-16T11:12:43;8.60;;;7.45;;
26906;SDS011;14472;56.880;16.658;2023-05-16T11:15:19;8.15;;;7.30;;
26906;SDS011;14472;56.880;16.658;2023-05-16T11:17:47;8.55;;;7.70;;
26906;SDS011;14472;56.880;16.658;2023-05-16T11:20:29;9.68;;;8.02;;
26906;SDS011;14472;56.880;16.658;2023-05-16T11:25:56;8.43;;;7.50;;
26906;SDS011;14472;56.880;16.658;2023-05-16T11:28:25;9.70;;;7.10;;
26906;SDS011;14472;56.880;16.658;2023-05-16T11:30:52;7.95;;;7.18;;
26906;SDS011;14472;56.880;16.658;2023-05-16T11:33:23;8.13;;;7.38;;
26906;SDS011;14472;56.880;16.658;2023-05-16T11:36:05;9.20;;;6.65;;
26906;SDS011;14472;56.880;16.658;2023-05-16T11:38:32;7.72;;;7.03;;
26906;SDS011;14472;56.880;16.658;2023-05-16T11:41:05;8.68;;;7.00;;
26906;SDS011;14472;56.880;16.658;2023-05-16T11:43:36;8.60;;;6.70;;
26906;SDS011;14472;56.880;16.658;2023-05-16T11:46:06;6.70;;;6.00;;
26906;SDS011;14472;56.880;16.658;2023-05-16T11:48:36;6.68;;;6.07;;
26906;SDS011;14472;56.880;16.658;2023-05-16T11:51:01;6.38;;;5.88;;
26906;SDS011;14472;56.880;16.658;2023-05-16T11:53:27;7.25;;;5.93;;
26906;SDS011;14472;56.880;16.658;2023-05-16T11:55:53;7.72;;;5.70;;
26906;SDS011;14472;56.880;16.658;2023-05-16T11:58:20;7.65;;;6.47;;
26906;SDS011;14472;56.880;16.658;2023-05-16T12:00:49;6.97;;;6.30;;
26906;SDS011;14472;56.880;16.658;2023-05-16T12:03:16;8.05;;;6.63;;
26906;SDS011;14472;56.880;16.658;2023-05-16T12:05:50;7.30;;;6.57;;
26906;SDS011;14472;56.880;16.658;2023-05-16T12:08:19;9.52;;;6.75;;
26906;SDS011;14472;56.880;16.658;2023-05-16T12:10:47;7.35;;;6.72;;
26906;SDS011;14472;56.880;16.658;2023-05-16T12:13:15;8.38;;;7.53;;
26906;SDS011;14472;56.880;16.658;2023-05-16T12:15:41;10.23;;;9.23;;
26906;SDS011;14472;56.880;16.658;2023-05-16T12:18:08;11.52;;;10.38;;
26906;SDS011;14472;56.880;16.658;2023-05-16T12:20:34;11.13;;;9.88;;
26906;SDS011;14472;56.880;16.658;2023-05-16T12:23:00;9.98;;;8.98;;
26906;SDS011;14472;56.880;16.658;2023-05-16T12:25:29;8.20;;;7.50;;
26906;SDS011;14472;56.880;16.658;2023-05-16T12:27:57;9.75;;;8.10;;
26906;SDS011;14472;56.880;16.658;2023-05-16T12:30:25;9.25;;;8.35;;
26906;SDS011;14472;56.880;16.658;2023-05-16T12:32:55;9.07;;;8.05;;
26906;SDS011;14472;56.880;16.658;2023-05-16T12:35:24;8.82;;;7.93;;
26906;SDS011;14472;56.880;16.658;2023-05-16T12:37:54;8.90;;;7.45;;
26906;SDS011;14472;56.880;16.658;2023-05-16T12:40:20;11.23;;;8.02;;
26906;SDS011;14472;56.880;16.658;2023-05-16T12:42:50;8.77;;;6.93;;
26906;SDS011;14472;56.880;16.658;2023-05-16T12:45:17;8.35;;;7.65;;
26906;SDS011;14472;56.880;16.658;2023-05-16T12:47:43;9.02;;;7.60;;
26906;SDS011;14472;56.880;16.658;2023-05-16T12:50:10;10.57;;;8.18;;
26906;SDS011;14472;56.880;16.658;2023-05-16T12:55:22;9.27;;;8.38;;
26906;SDS011;14472;56.880;16.658;2023-05-16T12:57:49;9.63;;;8.65;;
26906;SDS011;14472;56.880;16.658;2023-05-16T13:00:16;9.70;;;8.70;;
26906;SDS011;14472;56.880;16.658;2023-05-16T13:02:44;9.40;;;8.60;;
26906;SDS011;14472;56.880;16.658;2023-05-16T13:05:10;9.77;;;8.77;;
26906;SDS011;14472;56.880;16.658;2023-05-16T13:07:36;9.55;;;8.57;;
26906;SDS011;14472;56.880;16.658;2023-05-16T13:10:09;9.88;;;8.88;;
26906;SDS011;14472;56.880;16.658;2023-05-16T13:12:36;11.23;;;9.40;;
26906;SDS011;14472;56.880;16.658;2023-05-16T13:15:03;10.15;;;9.25;;
26906;SDS011;14472;56.880;16.658;2023-05-16T13:17:31;11.25;;;10.05;;
26906;SDS011;14472;56.880;16.658;2023-05-16T13:19:58;9.50;;;8.70;;
26906;SDS011;14472;56.880;16.658;2023-05-16T13:22:23;9.98;;;8.70;;
26906;SDS011;14472;56.880;16.658;2023-05-16T13:24:49;10.85;;;9.80;;
26906;SDS011;14472;56.880;16.658;2023-05-16T13:27:15;11.23;;;10.32;;
26906;SDS011;14472;56.880;16.658;2023-05-16T13:33:03;10.98;;;10.05;;
26906;SDS011;14472;56.880;16.658;2023-05-16T13:35:29;11.75;;;9.45;;
26906;SDS011;14472;56.880;16.658;2023-05-16T13:37:55;10.18;;;9.15;;
26906;SDS011;14472;56.880;16.658;2023-05-16T13:40:21;10.15;;;9.35;;
26906;SDS011;14472;56.880;16.658;2023-05-16T13:42:47;10.93;;;9.75;;
26906;SDS011;14472;56.880;16.658;2023-05-16T13:45:13;10.00;;;9.10;;
26906;SDS011;14472;56.880;16.658;2023-05-16T13:47:41;10.23;;;9.25;;
26906;SDS011;14472;56.880;16.658;2023-05-16T13:50:07;9.45;;;8.50;;
26906;SDS011;14472;56.880;16.658;2023-05-16T13:52:35;8.30;;;7.45;;
26906;SDS011;14472;56.880;16.658;2023-05-16T13:55:01;6.65;;;5.95;;
26906;SDS011;14472;56.880;16.658;2023-05-16T13:57:27;6.32;;;5.72;;
26906;SDS011;14472;56.880;16.658;2023-05-16T13:59:53;6.32;;;5.82;;
26906;SDS011;14472;56.880;16.658;2023-05-16T14:02:19;6.10;;;5.60;;
26906;SDS011;14472;56.880;16.658;2023-05-16T14:04:44;7.35;;;5.82;;
26906;SDS011;14472;56.880;16.658;2023-05-16T14:07:10;6.78;;;6.20;;
26906;SDS011;14472;56.880;16.658;2023-05-16T14:09:39;6.97;;;6.35;;
26906;SDS011;14472;56.880;16.658;2023-05-16T14:12:05;11.82;;;8.23;;
26906;SDS011;14472;56.880;16.658;2023-05-16T14:14:32;10.98;;;7.80;;
26906;SDS011;14472;56.880;16.658;2023-05-16T14:17:03;9.98;;;7.72;;
26906;SDS011;14472;56.880;16.658;2023-05-16T14:19:30;9.77;;;7.45;;
26906;SDS011;14472;56.880;16.658;2023-05-16T14:21:56;6.22;;;5.70;;
26906;SDS011;14472;56.880;16.658;2023-05-16T14:24:21;6.85;;;6.25;;
26906;SDS011;14472;56.880;16.658;2023-05-16T14:26:47;6.30;;;5.45;;
26906;SDS011;14472;56.880;16.658;2023-05-16T14:29:14;5.78;;;5.28;;
26906;SDS011;14472;56.880;16.658;2023-05-16T14:31:39;5.45;;;4.82;;
26906;SDS011;14472;56.880;16.658;2023-05-16T14:34:05;5.25;;;4.75;;